sensor_id;sensor_type;location;lat;lon;timestamp;pressure;altitude;pressure_sealevel;temperature;humidity
68994;BME280;56054;50.968;5.816;2024-02-21T00:00:57;100896.25;;;6.07;100.00
68994;BME280;56054;50.968;5.816;2024-02-21T00:04:05;100894.81;;;6.11;100.00
68994;BME280;56054;50.968;5.816;2024-02-21T00:07:12;100880.13;;;6.10;100.00
68994;BME280;56054;50.968;5.816;2024-02-21T00:10:19;100889.28;;;6.06;100.00
68994;BME280;56054;50.968;5.816;2024-02-21T00:13:26;100888.63;;;6.09;100.00
68994;BME280;56054;50.968;5.816;2024-02-21T00:16:33;100899.84;;;6.09;100.00
68994;BME280;56054;50.968;5.816;2024-02-21T00:19:40;100887.88;;;6.10;100.00
68994;BME280;56054;50.968;5.816;2024-02-21T00:22:47;100900.78;;;6.10;100.00
68994;BME280;56054;50.968;5.816;2024-02-21T00:25:54;100890.44;;;6.10;100.00
68994;BME280;56054;50.968;5.816;2024-02-21T00:29:01;100891.84;;;6.16;100.00
68994;BME280;56054;50.968;5.816;2024-02-21T00:32:08;100880.38;;;6.13;100.00
68994;BME280;56054;50.968;5.816;2024-02-21T00:35:15;100886.03;;;6.09;100.00
68994;BME280;56054;50.968;5.816;2024-02-21T00:38:22;100878.69;;;6.13;100.00
68994;BME280;56054;50.968;5.816;2024-02-21T00:41:29;100863.34;;;6.15;100.00
68994;BME280;56054;50.968;5.816;2024-02-21T00:44:36;100868.00;;;6.09;100.00
68994;BME280;56054;50.968;5.816;2024-02-21T00:47:43;100863.47;;;6.06;100.00
68994;BME280;56054;50.968;5.816;2024-02-21T00:50:50;100849.81;;;6.07;100.00
68994;BME280;56054;50.968;5.816;2024-02-21T00:53:57;100849.53;;;6.04;100.00
68994;BME280;56054;50.968;5.816;2024-02-21T00:57:04;100850.72;;;6.08;100.00
68994;BME280;56054;50.968;5.816;2024-02-21T01:00:11;100840.41;;;6.08;100.00
68994;BME280;56054;50.968;5.816;2024-02-21T01:03:19;100838.84;;;6.10;100.00
68994;BME280;56054;50.968;5.816;2024-02-21T01:06:26;100835.09;;;6.06;100.00
68994;BME280;56054;50.968;5.816;2024-02-21T01:09:33;100824.28;;;6.10;100.00
68994;BME280;56054;50.968;5.816;2024-02-21T01:12:40;100826.72;;;6.09;100.00
68994;BME280;56054;50.968;5.816;2024-02-21T01:15:47;100825.94;;;6.20;100.00
68994;BME280;56054;50.968;5.816;2024-02-21T01:18:54;100819.59;;;6.16;100.00
68994;BME280;56054;50.968;5.816;2024-02-21T01:22:01;100823.66;;;6.03;100.00
68994;BME280;56054;50.968;5.816;2024-02-21T01:25:08;100814.97;;;6.02;100.00
68994;BME280;56054;50.968;5.816;2024-02-21T01:28:15;100814.31;;;6.05;100.00
68994;BME280;56054;50.968;5.816;2024-02-21T01:31:22;100805.03;;;6.07;100.00
68994;BME280;56054;50.968;5.816;2024-02-21T01:34:29;100807.38;;;6.04;100.00
68994;BME280;56054;50.968;5.816;2024-02-21T01:37:37;100792.41;;;5.99;100.00
68994;BME280;56054;50.968;5.816;2024-02-21T01:40:44;100791.66;;;6.00;100.00
68994;BME280;56054;50.968;5.816;2024-02-21T01:43:51;100786.50;;;6.00;100.00
68994;BME280;56054;50.968;5.816;2024-02-21T01:46:58;100779.53;;;5.99;100.00
68994;BME280;56054;50.968;5.816;2024-02-21T01:50:05;100773.72;;;6.02;100.00
68994;BME280;56054;50.968;5.816;2024-02-21T01:53:17;100749.38;;;5.98;100.00
68994;BME280;56054;50.968;5.816;2024-02-21T01:56:25;100749.13;;;5.95;100.00
68994;BME280;56054;50.968;5.816;2024-02-21T01:59:32;100743.41;;;5.99;100.00
68994;BME280;56054;50.968;5.816;2024-02-21T02:02:40;100737.59;;;6.02;100.00
68994;BME280;56054;50.968;5.816;2024-02-21T02:05:48;100742.66;;;5.90;100.00
68994;BME280;56054;50.968;5.816;2024-02-21T02:08:55;100749.22;;;5.97;100.00
68994;BME280;56054;50.968;5.816;2024-02-21T02:12:02;100754.13;;;5.94;100.00
68994;BME280;56054;50.968;5.816;2024-02-21T02:15:09;100754.13;;;5.94;100.00
68994;BME280;56054;50.968;5.816;2024-02-21T02:18:17;100749.59;;;6.02;100.00
68994;BME280;56054;50.968;5.816;2024-02-21T02:21:39;100755.31;;;5.97;100.00
68994;BME280;56054;50.968;5.816;2024-02-21T02:24:49;100753.22;;;5.93;100.00
68994;BME280;56054;50.968;5.816;2024-02-21T02:27:56;100752.72;;;5.97;100.00
68994;BME280;56054;50.968;5.816;2024-02-21T02:31:03;100747.56;;;5.97;100.00
68994;BME280;56054;50.968;5.816;2024-02-21T02:34:10;100737.25;;;5.97;100.00
68994;BME280;56054;50.968;5.816;2024-02-21T02:37:17;100728.34;;;5.94;100.00
68994;BME280;56054;50.968;5.816;2024-02-21T02:40:24;100716.06;;;5.91;100.00
68994;BME280;56054;50.968;5.816;2024-02-21T02:43:31;100718.66;;;5.91;100.00
68994;BME280;56054;50.968;5.816;2024-02-21T02:46:40;100704.47;;;5.96;100.00
68994;BME280;56054;50.968;5.816;2024-02-21T02:49:48;100710.91;;;5.91;100.00
68994;BME280;56054;50.968;5.816;2024-02-21T02:52:55;100710.66;;;5.98;100.00
68994;BME280;56054;50.968;5.816;2024-02-21T02:56:02;100720.19;;;5.89;100.00
68994;BME280;56054;50.968;5.816;2024-02-21T02:59:09;100717.09;;;5.93;100.00
68994;BME280;56054;50.968;5.816;2024-02-21T03:02:16;100709.22;;;6.02;100.00
68994;BME280;56054;50.968;5.816;2024-02-21T03:05:24;100702.78;;;5.97;100.00
68994;BME280;56054;50.968;5.816;2024-02-21T03:08:31;100707.06;;;5.96;100.00
68994;BME280;56054;50.968;5.816;2024-02-21T03:11:38;100712.22;;;5.96;100.00
68994;BME280;56054;50.968;5.816;2024-02-21T03:14:45;100716.06;;;6.02;100.00
68994;BME280;56054;50.968;5.816;2024-02-21T03:17:52;100704.19;;;6.04;100.00
68994;BME280;56054;50.968;5.816;2024-02-21T03:20:59;100705.66;;;6.00;100.00
68994;BME280;56054;50.968;5.816;2024-02-21T03:24:06;100701.91;;;5.96;100.00
68994;BME280;56054;50.968;5.816;2024-02-21T03:27:13;100691.84;;;5.89;100.00
68994;BME280;56054;50.968;5.816;2024-02-21T03:30:20;100707.97;;;5.87;100.00
68994;BME280;56054;50.968;5.816;2024-02-21T03:33:27;100691.44;;;5.95;100.00
68994;BME280;56054;50.968;5.816;2024-02-21T03:36:34;100688.88;;;5.95;100.00
68994;BME280;56054;50.968;5.816;2024-02-21T03:39:41;100681.13;;;5.95;100.00
68994;BME280;56054;50.968;5.816;2024-02-21T03:42:48;100662.44;;;5.87;100.00
68994;BME280;56054;50.968;5.816;2024-02-21T03:45:56;100662.06;;;5.83;100.00
68994;BME280;56054;50.968;5.816;2024-02-21T03:49:03;100664.63;;;5.83;100.00
68994;BME280;56054;50.968;5.816;2024-02-21T03:52:10;100663.28;;;5.76;100.00
68994;BME280;56054;50.968;5.816;2024-02-21T03:55:17;100646.13;;;5.76;100.00
68994;BME280;56054;50.968;5.816;2024-02-21T03:58:24;100646.50;;;5.81;100.00
68994;BME280;56054;50.968;5.816;2024-02-21T04:01:31;100644.94;;;5.73;100.00
68994;BME280;56054;50.968;5.816;2024-02-21T04:04:38;100640.31;;;5.79;100.00
68994;BME280;56054;50.968;5.816;2024-02-21T04:07:45;100649.34;;;5.74;100.00
68994;BME280;56054;50.968;5.816;2024-02-21T04:10:52;100640.16;;;5.77;100.00
68994;BME280;56054;50.968;5.816;2024-02-21T04:13:59;100632.34;;;5.76;100.00
68994;BME280;56054;50.968;5.816;2024-02-21T04:17:06;100628.72;;;5.74;100.00
68994;BME280;56054;50.968;5.816;2024-02-21T04:20:15;100624.31;;;5.73;100.00
68994;BME280;56054;50.968;5.816;2024-02-21T04:23:23;100625.63;;;5.68;100.00
68994;BME280;56054;50.968;5.816;2024-02-21T04:26:31;100626.56;;;5.68;100.00
68994;BME280;56054;50.968;5.816;2024-02-21T04:29:38;100616.91;;;5.66;100.00
68994;BME280;56054;50.968;5.816;2024-02-21T04:32:45;100625.78;;;5.69;100.00
68994;BME280;56054;50.968;5.816;2024-02-21T04:35:52;100622.16;;;5.67;100.00
68994;BME280;56054;50.968;5.816;2024-02-21T04:38:59;100621.69;;;5.61;100.00
68994;BME280;56054;50.968;5.816;2024-02-21T04:42:06;100619.59;;;5.67;100.00
68994;BME280;56054;50.968;5.816;2024-02-21T04:45:13;100612.22;;;5.72;100.00
68994;BME280;56054;50.968;5.816;2024-02-21T04:48:20;100620.47;;;5.78;100.00
68994;BME280;56054;50.968;5.816;2024-02-21T04:51:27;100612.00;;;5.69;100.00
68994;BME280;56054;50.968;5.816;2024-02-21T04:54:34;100612.00;;;5.69;100.00
68994;BME280;56054;50.968;5.816;2024-02-21T04:57:41;100614.94;;;5.73;100.00
68994;BME280;56054;50.968;5.816;2024-02-21T05:00:48;100614.94;;;5.73;100.00
68994;BME280;56054;50.968;5.816;2024-02-21T05:03:55;100609.50;;;5.70;100.00
68994;BME280;56054;50.968;5.816;2024-02-21T05:07:02;100605.00;;;5.68;100.00
68994;BME280;56054;50.968;5.816;2024-02-21T05:10:09;100602.72;;;5.61;100.00
68994;BME280;56054;50.968;5.816;2024-02-21T05:13:16;100609.69;;;5.62;100.00
68994;BME280;56054;50.968;5.816;2024-02-21T05:16:23;100594.84;;;5.69;100.00
68994;BME280;56054;50.968;5.816;2024-02-21T05:19:30;100601.13;;;5.73;100.00
68994;BME280;56054;50.968;5.816;2024-02-21T05:22:37;100590.56;;;5.70;100.00
68994;BME280;56054;50.968;5.816;2024-02-21T05:25:44;100588.41;;;5.64;100.00
68994;BME280;56054;50.968;5.816;2024-02-21T05:28:51;100591.50;;;5.60;100.00
68994;BME280;56054;50.968;5.816;2024-02-21T05:31:58;100591.13;;;5.66;100.00
68994;BME280;56054;50.968;5.816;2024-02-21T05:35:05;100575.91;;;5.69;100.00
68994;BME280;56054;50.968;5.816;2024-02-21T05:38:12;100569.72;;;5.67;100.00
68994;BME280;56054;50.968;5.816;2024-02-21T05:41:19;100561.97;;;5.67;100.00
68994;BME280;56054;50.968;5.816;2024-02-21T05:44:26;100565.09;;;5.63;100.00
68994;BME280;56054;50.968;5.816;2024-02-21T05:47:33;100568.09;;;5.57;100.00
68994;BME280;56054;50.968;5.816;2024-02-21T05:50:40;100547.88;;;5.51;100.00
68994;BME280;56054;50.968;5.816;2024-02-21T05:53:47;100548.06;;;5.65;100.00
68994;BME280;56054;50.968;5.816;2024-02-21T05:56:54;100557.25;;;5.51;100.00
68994;BME280;56054;50.968;5.816;2024-02-21T06:00:08;100561.81;;;5.43;100.00
68994;BME280;56054;50.968;5.816;2024-02-21T06:03:15;100562.09;;;5.46;100.00
68994;BME280;56054;50.968;5.816;2024-02-21T06:06:22;100568.38;;;5.50;100.00
68994;BME280;56054;50.968;5.816;2024-02-21T06:09:29;100562.09;;;5.46;100.00
68994;BME280;56054;50.968;5.816;2024-02-21T06:12:36;100556.78;;;5.45;100.00
68994;BME280;56054;50.968;5.816;2024-02-21T06:15:43;100560.75;;;5.51;100.00
68994;BME280;56054;50.968;5.816;2024-02-21T06:18:50;100562.41;;;5.51;100.00
68994;BME280;56054;50.968;5.816;2024-02-21T06:21:57;100547.75;;;5.50;100.00
68994;BME280;56054;50.968;5.816;2024-02-21T06:25:04;100550.09;;;5.47;100.00
68994;BME280;56054;50.968;5.816;2024-02-21T06:28:11;100545.59;;;5.44;100.00
68994;BME280;56054;50.968;5.816;2024-02-21T06:31:18;100536.41;;;5.48;100.00
68994;BME280;56054;50.968;5.816;2024-02-21T06:34:25;100539.66;;;5.45;100.00
68994;BME280;56054;50.968;5.816;2024-02-21T06:37:32;100527.38;;;5.53;100.00
68994;BME280;56054;50.968;5.816;2024-02-21T06:40:39;100517.47;;;5.47;100.00
68994;BME280;56054;50.968;5.816;2024-02-21T06:43:46;100520.44;;;5.52;100.00
68994;BME280;56054;50.968;5.816;2024-02-21T06:46:54;100529.56;;;5.48;100.00
68994;BME280;56054;50.968;5.816;2024-02-21T06:50:01;100517.91;;;5.42;100.00
68994;BME280;56054;50.968;5.816;2024-02-21T06:53:08;100524.84;;;5.43;100.00
68994;BME280;56054;50.968;5.816;2024-02-21T06:56:15;100527.91;;;5.49;100.00
68994;BME280;56054;50.968;5.816;2024-02-21T06:59:22;100523.75;;;5.51;100.00
68994;BME280;56054;50.968;5.816;2024-02-21T07:02:29;100534.72;;;5.48;100.00
68994;BME280;56054;50.968;5.816;2024-02-21T07:05:36;100518.78;;;5.42;100.00
68994;BME280;56054;50.968;5.816;2024-02-21T07:08:43;100518.00;;;5.43;100.00
68994;BME280;56054;50.968;5.816;2024-02-21T07:11:50;100514.91;;;5.47;100.00
68994;BME280;56054;50.968;5.816;2024-02-21T07:14:57;100531.03;;;5.45;100.00
68994;BME280;56054;50.968;5.816;2024-02-21T07:18:04;100533.50;;;5.33;100.00
68994;BME280;56054;50.968;5.816;2024-02-21T07:21:11;100527.56;;;5.44;100.00
68994;BME280;56054;50.968;5.816;2024-02-21T07:24:18;100518.94;;;5.33;100.00
68994;BME280;56054;50.968;5.816;2024-02-21T07:27:25;100515.59;;;5.34;100.00
68994;BME280;56054;50.968;5.816;2024-02-21T07:30:32;100510.03;;;5.40;100.00
68994;BME280;56054;50.968;5.816;2024-02-21T07:33:39;100501.00;;;5.45;100.00
68994;BME280;56054;50.968;5.816;2024-02-21T07:36:46;100497.16;;;5.40;100.00
68994;BME280;56054;50.968;5.816;2024-02-21T07:39:53;100501.00;;;5.45;100.00
68994;BME280;56054;50.968;5.816;2024-02-21T07:43:00;100493.91;;;5.43;100.00
68994;BME280;56054;50.968;5.816;2024-02-21T07:46:10;100487.44;;;5.48;100.00
68994;BME280;56054;50.968;5.816;2024-02-21T07:49:17;100486.31;;;5.44;100.00
68994;BME280;56054;50.968;5.816;2024-02-21T07:52:24;100492.13;;;5.42;100.00
68994;BME280;56054;50.968;5.816;2024-02-21T07:55:31;100485.53;;;5.45;100.00
68994;BME280;56054;50.968;5.816;2024-02-21T07:58:38;100479.13;;;5.40;100.00
68994;BME280;56054;50.968;5.816;2024-02-21T08:01:45;100484.03;;;5.37;100.00
68994;BME280;56054;50.968;5.816;2024-02-21T08:04:52;100467.91;;;5.40;100.00
68994;BME280;56054;50.968;5.816;2024-02-21T08:07:59;100452.03;;;5.45;100.00
68994;BME280;56054;50.968;5.816;2024-02-21T08:11:06;100446.88;;;5.45;100.00
68994;BME280;56054;50.968;5.816;2024-02-21T08:14:13;100435.53;;;5.43;100.00
68994;BME280;56054;50.968;5.816;2024-02-21T08:17:20;100442.63;;;5.46;100.00
68994;BME280;56054;50.968;5.816;2024-02-21T08:20:27;100438.63;;;5.49;100.00
68994;BME280;56054;50.968;5.816;2024-02-21T08:23:34;100430.09;;;5.50;100.00
68994;BME280;56054;50.968;5.816;2024-02-21T08:26:42;100411.81;;;5.47;100.00
68994;BME280;56054;50.968;5.816;2024-02-21T08:29:49;100420.88;;;5.42;100.00
68994;BME280;56054;50.968;5.816;2024-02-21T08:32:56;100415.28;;;5.48;100.00
68994;BME280;56054;50.968;5.816;2024-02-21T08:36:03;100395.69;;;5.50;100.00
68994;BME280;56054;50.968;5.816;2024-02-21T08:39:10;100386.19;;;5.49;100.00
68994;BME280;56054;50.968;5.816;2024-02-21T08:42:17;100379.00;;;5.45;100.00
68994;BME280;56054;50.968;5.816;2024-02-21T08:45:24;100374.97;;;5.48;100.00
68994;BME280;56054;50.968;5.816;2024-02-21T08:48:31;100370.06;;;5.51;100.00
68994;BME280;56054;50.968;5.816;2024-02-21T08:51:38;100360.41;;;5.49;100.00
68994;BME280;56054;50.968;5.816;2024-02-21T08:54:45;100356.50;;;5.54;100.00
68994;BME280;56054;50.968;5.816;2024-02-21T08:57:52;100350.56;;;5.55;100.00
68994;BME280;56054;50.968;5.816;2024-02-21T09:00:59;100335.47;;;5.60;100.00
68994;BME280;56054;50.968;5.816;2024-02-21T09:04:06;100331.88;;;5.57;100.00
68994;BME280;56054;50.968;5.816;2024-02-21T09:07:13;100328.22;;;5.66;100.00
68994;BME280;56054;50.968;5.816;2024-02-21T09:10:20;100321.06;;;5.73;100.00
68994;BME280;56054;50.968;5.816;2024-02-21T09:13:28;100325.53;;;5.76;100.00
68994;BME280;56054;50.968;5.816;2024-02-21T09:16:35;100312.75;;;5.77;100.00
68994;BME280;56054;50.968;5.816;2024-02-21T09:19:42;100316.81;;;5.86;100.00
68994;BME280;56054;50.968;5.816;2024-02-21T09:22:49;100308.97;;;5.84;100.00
68994;BME280;56054;50.968;5.816;2024-02-21T09:25:56;100298.19;;;5.90;100.00
68994;BME280;56054;50.968;5.816;2024-02-21T09:29:03;100295.56;;;6.00;100.00
68994;BME280;56054;50.968;5.816;2024-02-21T09:32:10;100301.72;;;6.02;100.00
68994;BME280;56054;50.968;5.816;2024-02-21T09:35:17;100301.72;;;6.02;100.00
68994;BME280;56054;50.968;5.816;2024-02-21T09:38:24;100299.47;;;6.07;100.00
68994;BME280;56054;50.968;5.816;2024-02-21T09:41:32;100305.09;;;6.13;100.00
68994;BME280;56054;50.968;5.816;2024-02-21T09:44:44;100307.34;;;6.20;100.00
68994;BME280;56054;50.968;5.816;2024-02-21T09:51:17;100300.72;;;6.12;100.00
68994;BME280;56054;50.968;5.816;2024-02-21T09:54:26;100281.97;;;6.14;100.00
68994;BME280;56054;50.968;5.816;2024-02-21T09:57:34;100279.19;;;6.23;100.00
68994;BME280;56054;50.968;5.816;2024-02-21T10:00:41;100273.00;;;6.21;100.00
68994;BME280;56054;50.968;5.816;2024-02-21T10:03:48;100278.09;;;6.19;100.00
68994;BME280;56054;50.968;5.816;2024-02-21T10:06:55;100254.28;;;6.24;100.00
68994;BME280;56054;50.968;5.816;2024-02-21T10:10:03;100260.31;;;6.24;100.00
68994;BME280;56054;50.968;5.816;2024-02-21T10:13:10;100243.75;;;6.32;100.00
68994;BME280;56054;50.968;5.816;2024-02-21T10:16:18;100239.94;;;6.39;100.00
68994;BME280;56054;50.968;5.816;2024-02-21T10:19:25;100227.31;;;6.43;100.00
68994;BME280;56054;50.968;5.816;2024-02-21T10:22:32;100217.44;;;6.50;100.00
68994;BME280;56054;50.968;5.816;2024-02-21T10:25:39;100218.34;;;6.50;100.00
68994;BME280;56054;50.968;5.816;2024-02-21T10:28:49;100199.50;;;6.51;100.00
68994;BME280;56054;50.968;5.816;2024-02-21T10:32:07;100192.44;;;6.49;100.00
68994;BME280;56054;50.968;5.816;2024-02-21T10:35:14;100188.34;;;6.64;100.00
68994;BME280;56054;50.968;5.816;2024-02-21T10:38:21;100187.97;;;6.71;100.00
68994;BME280;56054;50.968;5.816;2024-02-21T10:41:29;100170.22;;;6.76;100.00
68994;BME280;56054;50.968;5.816;2024-02-21T10:44:39;100167.69;;;6.89;100.00
68994;BME280;56054;50.968;5.816;2024-02-21T10:47:50;100153.25;;;6.79;100.00
68994;BME280;56054;50.968;5.816;2024-02-21T10:51:11;100132.34;;;6.88;100.00
68994;BME280;56054;50.968;5.816;2024-02-21T10:57:45;100115.72;;;6.84;100.00
68994;BME280;56054;50.968;5.816;2024-02-21T11:00:54;100089.91;;;6.84;100.00
68994;BME280;56054;50.968;5.816;2024-02-21T11:04:02;100073.38;;;7.07;100.00
68994;BME280;56054;50.968;5.816;2024-02-21T11:07:10;100079.09;;;6.90;100.00
68994;BME280;56054;50.968;5.816;2024-02-21T11:10:24;100059.84;;;6.98;100.00
68994;BME280;56054;50.968;5.816;2024-02-21T11:13:35;100049.91;;;7.04;100.00
68994;BME280;56054;50.968;5.816;2024-02-21T11:16:42;100044.03;;;7.07;100.00
68994;BME280;56054;50.968;5.816;2024-02-21T11:19:49;100061.72;;;7.14;100.00
68994;BME280;56054;50.968;5.816;2024-02-21T11:22:56;100077.84;;;7.23;100.00
68994;BME280;56054;50.968;5.816;2024-02-21T11:26:07;100068.41;;;7.24;100.00
68994;BME280;56054;50.968;5.816;2024-02-21T11:29:23;100076.94;;;7.36;100.00
68994;BME280;56054;50.968;5.816;2024-02-21T11:32:31;100056.19;;;7.35;100.00
68994;BME280;56054;50.968;5.816;2024-02-21T11:35:38;100055.41;;;7.49;100.00
68994;BME280;56054;50.968;5.816;2024-02-21T11:38:45;100039.28;;;7.53;100.00
68994;BME280;56054;50.968;5.816;2024-02-21T11:42:02;100038.88;;;7.60;100.00
68994;BME280;56054;50.968;5.816;2024-02-21T11:45:09;100039.09;;;7.63;100.00
68994;BME280;56054;50.968;5.816;2024-02-21T11:48:16;100033.22;;;7.66;100.00
68994;BME280;56054;50.968;5.816;2024-02-21T11:51:26;100035.97;;;7.69;100.00
68994;BME280;56054;50.968;5.816;2024-02-21T11:54:40;100008.44;;;7.69;100.00
68994;BME280;56054;50.968;5.816;2024-02-21T11:57:50;100006.31;;;7.77;100.00
68994;BME280;56054;50.968;5.816;2024-02-21T12:00:57;100005.47;;;7.91;100.00
68994;BME280;56054;50.968;5.816;2024-02-21T12:04:04;99986.06;;;7.98;100.00
68994;BME280;56054;50.968;5.816;2024-02-21T12:07:11;99978.03;;;7.93;100.00
68994;BME280;56054;50.968;5.816;2024-02-21T12:10:18;99976.50;;;7.97;100.00
68994;BME280;56054;50.968;5.816;2024-02-21T12:13:25;99970.13;;;8.05;100.00
68994;BME280;56054;50.968;5.816;2024-02-21T12:16:32;99953.47;;;8.15;100.00
68994;BME280;56054;50.968;5.816;2024-02-21T12:19:39;99951.31;;;8.23;100.00
68994;BME280;56054;50.968;5.816;2024-02-21T12:22:49;99948.66;;;8.36;100.00
68994;BME280;56054;50.968;5.816;2024-02-21T12:25:56;99947.03;;;8.38;100.00
68994;BME280;56054;50.968;5.816;2024-02-21T12:29:03;99944.88;;;8.44;100.00
68994;BME280;56054;50.968;5.816;2024-02-21T12:32:10;99916.44;;;8.31;100.00
68994;BME280;56054;50.968;5.816;2024-02-21T12:35:17;99892.78;;;8.25;100.00
68994;BME280;56054;50.968;5.816;2024-02-21T12:38:24;99868.50;;;8.23;100.00
68994;BME280;56054;50.968;5.816;2024-02-21T12:41:31;99871.16;;;8.09;100.00
68994;BME280;56054;50.968;5.816;2024-02-21T12:44:38;99863.16;;;8.20;100.00
68994;BME280;56054;50.968;5.816;2024-02-21T12:47:45;99865.81;;;8.06;100.00
68994;BME280;56054;50.968;5.816;2024-02-21T12:50:52;99853.25;;;8.27;100.00
68994;BME280;56054;50.968;5.816;2024-02-21T12:53:59;99835.31;;;8.15;100.00
68994;BME280;56054;50.968;5.816;2024-02-21T12:57:06;99835.41;;;8.17;100.00
68994;BME280;56054;50.968;5.816;2024-02-21T13:00:13;99839.94;;;8.06;100.00
68994;BME280;56054;50.968;5.816;2024-02-21T13:03:20;99835.94;;;8.11;100.00
68994;BME280;56054;50.968;5.816;2024-02-21T13:06:27;99825.25;;;8.20;100.00
68994;BME280;56054;50.968;5.816;2024-02-21T13:09:34;99837.28;;;8.05;100.00
68994;BME280;56054;50.968;5.816;2024-02-21T13:12:41;99829.31;;;8.02;100.00
68994;BME280;56054;50.968;5.816;2024-02-21T13:15:48;99825.31;;;8.07;100.00
68994;BME280;56054;50.968;5.816;2024-02-21T13:18:55;99812.84;;;8.14;100.00
68994;BME280;56054;50.968;5.816;2024-02-21T13:22:02;99808.19;;;7.94;100.00
68994;BME280;56054;50.968;5.816;2024-02-21T13:25:09;99786.78;;;7.97;100.00
68994;BME280;56054;50.968;5.816;2024-02-21T13:28:16;99784.56;;;7.88;100.00
68994;BME280;56054;50.968;5.816;2024-02-21T13:31:23;99781.34;;;7.92;100.00
68994;BME280;56054;50.968;5.816;2024-02-21T13:34:30;99774.84;;;7.99;100.00
68994;BME280;56054;50.968;5.816;2024-02-21T13:37:38;99771.38;;;7.98;100.00
68994;BME280;56054;50.968;5.816;2024-02-21T13:40:52;99773.56;;;8.07;100.00
68994;BME280;56054;50.968;5.816;2024-02-21T13:43:59;99767.06;;;7.99;100.00
68994;BME280;56054;50.968;5.816;2024-02-21T13:47:06;99753.06;;;8.10;100.00
68994;BME280;56054;50.968;5.816;2024-02-21T13:50:14;99728.63;;;8.05;100.00
68994;BME280;56054;50.968;5.816;2024-02-21T13:53:29;99725.13;;;8.04;100.00
68994;BME280;56054;50.968;5.816;2024-02-21T13:56:36;99715.16;;;8.10;100.00
68994;BME280;56054;50.968;5.816;2024-02-21T13:59:43;99700.94;;;8.19;100.00
68994;BME280;56054;50.968;5.816;2024-02-21T14:02:50;99700.03;;;8.18;100.00
68994;BME280;56054;50.968;5.816;2024-02-21T14:05:57;99698.28;;;8.17;100.00
68994;BME280;56054;50.968;5.816;2024-02-21T14:09:04;99685.56;;;8.22;100.00
68994;BME280;56054;50.968;5.816;2024-02-21T14:12:11;99673.13;;;8.14;100.00
68994;BME280;56054;50.968;5.816;2024-02-21T14:15:18;99682.19;;;8.23;100.00
68994;BME280;56054;50.968;5.816;2024-02-21T14:18:25;99657.50;;;8.13;100.00
68994;BME280;56054;50.968;5.816;2024-02-21T14:21:32;99656.63;;;8.12;100.00
68994;BME280;56054;50.968;5.816;2024-02-21T14:24:39;99636.38;;;8.05;100.00
68994;BME280;56054;50.968;5.816;2024-02-21T14:27:46;99633.16;;;8.09;100.00
68994;BME280;56054;50.968;5.816;2024-02-21T14:30:53;99629.41;;;8.04;100.00
68994;BME280;56054;50.968;5.816;2024-02-21T14:34:00;99621.91;;;8.09;100.00
68994;BME280;56054;50.968;5.816;2024-02-21T14:37:07;99609.84;;;8.09;100.00
68994;BME280;56054;50.968;5.816;2024-02-21T14:40:14;99613.09;;;8.05;100.00
68994;BME280;56054;50.968;5.816;2024-02-21T14:43:21;99603.91;;;8.10;100.00
68994;BME280;56054;50.968;5.816;2024-02-21T14:46:28;99597.84;;;8.10;100.00
68994;BME280;56054;50.968;5.816;2024-02-21T14:49:35;99586.88;;;7.99;100.00
68994;BME280;56054;50.968;5.816;2024-02-21T14:52:43;99581.41;;;8.09;100.00
68994;BME280;56054;50.968;5.816;2024-02-21T14:55:50;99567.06;;;8.00;100.00
68994;BME280;56054;50.968;5.816;2024-02-21T14:58:57;99554.72;;;7.94;100.00
68994;BME280;56054;50.968;5.816;2024-02-21T15:02:04;99550.34;;;7.93;100.00
68994;BME280;56054;50.968;5.816;2024-02-21T15:05:11;99526.47;;;7.82;100.00
68994;BME280;56054;50.968;5.816;2024-02-21T15:08:18;99523.00;;;7.82;100.00
68994;BME280;56054;50.968;5.816;2024-02-21T15:11:25;99519.28;;;7.77;100.00
68994;BME280;56054;50.968;5.816;2024-02-21T15:14:32;99517.53;;;7.76;100.00
68994;BME280;56054;50.968;5.816;2024-02-21T15:17:39;99513.69;;;7.69;100.00
68994;BME280;56054;50.968;5.816;2024-02-21T15:20:46;99494.38;;;7.62;100.00
68994;BME280;56054;50.968;5.816;2024-02-21T15:23:53;99491.09;;;7.50;100.00
68994;BME280;56054;50.968;5.816;2024-02-21T15:27:00;99470.19;;;7.45;100.00
68994;BME280;56054;50.968;5.816;2024-02-21T15:30:08;99471.53;;;7.39;100.00
68994;BME280;56054;50.968;5.816;2024-02-21T15:33:15;99476.09;;;7.28;100.00
68994;BME280;56054;50.968;5.816;2024-02-21T15:36:22;99455.69;;;7.33;100.00
68994;BME280;56054;50.968;5.816;2024-02-21T15:39:29;99451.63;;;7.21;100.00
68994;BME280;56054;50.968;5.816;2024-02-21T15:42:36;99443.19;;;7.09;100.00
68994;BME280;56054;50.968;5.816;2024-02-21T15:45:43;99436.41;;;7.11;100.00
68994;BME280;56054;50.968;5.816;2024-02-21T15:48:50;99431.28;;;6.96;100.00
68994;BME280;56054;50.968;5.816;2024-02-21T15:51:57;99419.22;;;6.80;100.00
68994;BME280;56054;50.968;5.816;2024-02-21T15:55:05;99409.84;;;6.82;100.00
68994;BME280;56054;50.968;5.816;2024-02-21T15:58:13;99404.97;;;6.72;100.00
68994;BME280;56054;50.968;5.816;2024-02-21T16:01:20;99389.16;;;6.66;100.00
68994;BME280;56054;50.968;5.816;2024-02-21T16:04:27;99376.25;;;6.66;100.00
68994;BME280;56054;50.968;5.816;2024-02-21T16:07:34;99374.13;;;6.59;100.00
68994;BME280;56054;50.968;5.816;2024-02-21T16:10:41;99368.94;;;6.59;100.00
68994;BME280;56054;50.968;5.816;2024-02-21T16:13:48;99360.13;;;6.55;100.00
68994;BME280;56054;50.968;5.816;2024-02-21T16:16:55;99351.97;;;6.48;100.00
68994;BME280;56054;50.968;5.816;2024-02-21T16:20:02;99346.34;;;6.55;100.00
68994;BME280;56054;50.968;5.816;2024-02-21T16:23:09;99337.47;;;6.50;100.00
68994;BME280;56054;50.968;5.816;2024-02-21T16:26:16;99333.78;;;6.46;100.00
68994;BME280;56054;50.968;5.816;2024-02-21T16:29:23;99315.94;;;6.34;100.00